createdAt,value
2022-10-17T00:00:08.354Z,13.65
2022-10-17T00:03:11.970Z,13.66
2022-10-17T00:06:15.198Z,13.62
2022-10-17T00:09:17.670Z,13.69
2022-10-17T00:12:19.872Z,13.58
2022-10-17T00:15:22.488Z,13.65
2022-10-17T00:18:25.207Z,13.53
2022-10-17T00:21:27.790Z,13.50
2022-10-17T00:24:31.682Z,13.49
2022-10-17T00:27:39.114Z,13.58
2022-10-17T00:30:41.928Z,13.46
2022-10-17T00:33:44.672Z,13.41
2022-10-17T00:36:46.904Z,13.50
2022-10-17T00:39:49.632Z,13.38
2022-10-17T00:42:53.294Z,13.45
2022-10-17T00:45:56.865Z,13.34
2022-10-17T00:49:03.107Z,13.42
2022-10-17T00:52:11.694Z,13.33
2022-10-17T00:55:20.036Z,13.34
2022-10-17T00:58:22.842Z,13.29
2022-10-17T01:01:25.431Z,13.38
2022-10-17T01:04:28.010Z,13.31
2022-10-17T01:07:34.664Z,13.21
2022-10-17T01:10:48.131Z,13.23
2022-10-17T01:13:58.297Z,13.15
2022-10-17T01:17:11.404Z,13.24
2022-10-17T01:20:39.606Z,13.13
2022-10-17T01:24:00.901Z,13.20
2022-10-17T01:27:34.138Z,13.18
2022-10-17T01:31:08.051Z,13.17
2022-10-17T01:34:18.893Z,13.14
2022-10-17T01:37:41.071Z,13.11
2022-10-17T01:40:52.705Z,13.13
2022-10-17T01:44:13.129Z,13.03
2022-10-17T01:47:21.866Z,13.06
2022-10-17T01:50:31.231Z,12.95
2022-10-17T01:53:42.824Z,13.03
2022-10-17T01:56:47.771Z,13.02
2022-10-17T01:59:52.997Z,12.90
2022-10-17T02:03:00.254Z,12.86
2022-10-17T02:06:04.619Z,12.84
2022-10-17T02:09:23.193Z,12.91
2022-10-17T02:12:52.035Z,12.91
2022-10-17T02:16:06.258Z,12.73
2022-10-17T02:19:21.040Z,12.85
2022-10-17T02:22:31.969Z,12.75
2022-10-17T02:25:41.623Z,12.77
2022-10-17T02:28:58.803Z,12.77
2022-10-17T02:32:08.810Z,12.63
2022-10-17T02:35:15.590Z,12.69
2022-10-17T02:38:18.661Z,12.55
2022-10-17T02:41:24.018Z,12.62
2022-10-17T02:44:28.669Z,12.46
2022-10-17T02:47:41.750Z,12.48
2022-10-17T02:50:57.401Z,12.55
2022-10-17T02:54:17.147Z,12.55
2022-10-17T02:57:31.065Z,12.51
2022-10-17T03:00:35.411Z,12.36
2022-10-17T03:03:38.107Z,12.36
2022-10-17T03:06:41.364Z,12.41
2022-10-17T03:09:43.919Z,12.33
2022-10-17T03:12:46.180Z,12.33
2022-10-17T03:15:48.772Z,12.31
2022-10-17T03:18:51.322Z,12.29
2022-10-17T03:21:54.363Z,12.26
2022-10-17T03:24:57.263Z,12.27
2022-10-17T03:28:01.511Z,12.25
2022-10-17T03:31:11.180Z,12.30
2022-10-17T03:34:16.707Z,12.29
2022-10-17T03:37:19.089Z,12.27
2022-10-17T03:40:22.484Z,12.16
2022-10-17T03:43:24.716Z,12.09
2022-10-17T03:46:27.195Z,12.17
2022-10-17T03:49:29.999Z,12.20
2022-10-17T03:52:32.577Z,12.22
2022-10-17T03:55:35.670Z,12.11
2022-10-17T03:58:38.492Z,12.10
2022-10-17T04:01:41.572Z,12.08
2022-10-17T04:04:44.367Z,12.17
2022-10-17T04:07:46.608Z,12.04
2022-10-17T04:10:50.043Z,12.12
2022-10-17T04:13:57.146Z,12.00
2022-10-17T04:17:00.838Z,12.12
2022-10-17T04:20:03.828Z,12.00
2022-10-17T04:23:06.518Z,12.09
2022-10-17T04:26:09.768Z,12.04
2022-10-17T04:29:12.285Z,12.05
2022-10-17T04:32:15.214Z,12.05
2022-10-17T04:35:18.035Z,11.95
2022-10-17T04:38:23.743Z,12.07
2022-10-17T04:41:28.905Z,12.02
2022-10-17T04:44:33.670Z,11.98
2022-10-17T04:47:36.439Z,12.03
2022-10-17T04:50:38.697Z,11.88
2022-10-17T04:53:43.406Z,11.98
2022-10-17T04:56:47.179Z,11.97
2022-10-17T04:59:50.059Z,11.93
2022-10-17T05:02:53.951Z,11.95
2022-10-17T05:05:56.455Z,11.82
2022-10-17T05:08:59.139Z,11.82
2022-10-17T05:12:04.293Z,11.82
2022-10-17T05:15:10.772Z,11.79
2022-10-17T05:18:13.346Z,11.83
2022-10-17T05:21:17.328Z,11.95
2022-10-17T05:24:19.859Z,11.92
2022-10-17T05:27:23.429Z,11.86
2022-10-17T05:30:25.924Z,11.97
2022-10-17T05:33:30.566Z,11.91
2022-10-17T05:36:33.159Z,11.91
2022-10-17T05:39:35.767Z,11.99
2022-10-17T05:45:44.012Z,12.01
2022-10-17T05:48:47.834Z,12.16
2022-10-17T05:51:50.080Z,12.18
2022-10-17T05:54:52.622Z,12.21
2022-10-17T05:57:55.388Z,12.20
2022-10-17T06:01:00.673Z,12.24
2022-10-17T06:04:03.361Z,12.28
2022-10-17T06:07:06.682Z,12.08
2022-10-17T06:10:12.365Z,12.23
2022-10-17T06:13:15.393Z,12.37
2022-10-17T06:16:18.108Z,12.33
2022-10-17T06:19:20.622Z,12.47
2022-10-17T06:22:23.592Z,12.49
2022-10-17T06:25:26.055Z,12.47
2022-10-17T06:28:29.277Z,12.52
2022-10-17T06:31:33.664Z,12.69
2022-10-17T06:34:38.916Z,12.72
2022-10-17T06:37:41.751Z,12.79
2022-10-17T06:40:44.779Z,12.78
2022-10-17T06:43:47.768Z,12.98
2022-10-17T06:46:59.793Z,13.09
2022-10-17T06:50:02.238Z,13.17
2022-10-17T06:53:05.232Z,13.11
2022-10-17T06:56:10.890Z,13.30
2022-10-17T06:59:15.513Z,13.38
2022-10-17T07:02:20.400Z,13.39
2022-10-17T07:05:24.541Z,13.50
2022-10-17T07:08:27.510Z,13.83
2022-10-17T07:11:30.084Z,13.98
2022-10-17T07:14:33.025Z,14.20
2022-10-17T07:17:35.522Z,14.55
2022-10-17T07:20:38.076Z,14.84
2022-10-17T07:23:41.479Z,15.08
2022-10-17T07:26:44.899Z,15.42
2022-10-17T07:29:49.857Z,15.74
2022-10-17T07:32:57.862Z,15.98
2022-10-17T07:36:01.520Z,16.30
2022-10-17T07:39:03.927Z,17.56
2022-10-17T07:42:07.820Z,19.26
2022-10-17T07:45:10.428Z,20.07
2022-10-17T07:48:12.874Z,20.82
2022-10-17T07:51:28.592Z,22.44
2022-10-17T07:54:32.938Z,23.88
2022-10-17T07:57:35.669Z,24.23
2022-10-17T08:00:38.377Z,24.28
2022-10-17T08:03:42.874Z,24.89
2022-10-17T08:06:45.225Z,25.28
2022-10-17T08:09:47.904Z,25.35
2022-10-17T08:12:50.137Z,25.51
2022-10-17T08:15:52.717Z,25.68
2022-10-17T08:18:55.058Z,26.19
2022-10-17T08:21:59.158Z,27.77
2022-10-17T08:25:01.407Z,29.91
2022-10-17T08:28:03.985Z,31.26
2022-10-17T08:31:09.441Z,32.79
2022-10-17T08:34:11.950Z,33.27
2022-10-17T08:37:14.689Z,34.18
2022-10-17T08:40:22.503Z,34.81
2022-10-17T08:43:35.596Z,34.81
2022-10-17T08:46:42.357Z,35.15
2022-10-17T08:49:57.368Z,35.32
2022-10-17T08:53:38.672Z,35.75
2022-10-17T08:56:49.247Z,36.07
2022-10-17T08:59:54.360Z,36.50
2022-10-17T09:03:24.621Z,36.62
2022-10-17T09:06:39.570Z,37.14
2022-10-17T09:10:17.356Z,36.71
2022-10-17T09:14:01.734Z,37.18
2022-10-17T09:17:32.835Z,36.76
2022-10-17T09:20:59.183Z,35.09
2022-10-17T09:24:09.610Z,32.88
2022-10-17T09:27:40.683Z,31.44
2022-10-17T09:30:45.530Z,30.23
2022-10-17T09:33:55.249Z,29.62
2022-10-17T09:37:02.372Z,29.37
2022-10-17T09:40:08.793Z,28.71
2022-10-17T09:43:15.291Z,28.71
2022-10-17T09:46:36.746Z,27.45
2022-10-17T09:49:45.036Z,27.20
2022-10-17T09:52:49.391Z,26.92
2022-10-17T09:55:58.104Z,25.70
2022-10-17T09:59:00.698Z,24.31
2022-10-17T10:02:20.360Z,24.51
2022-10-17T10:05:23.101Z,24.98
2022-10-17T10:08:37.882Z,24.89
2022-10-17T10:11:52.381Z,24.92
2022-10-17T10:14:55.504Z,24.96
2022-10-17T10:17:58.471Z,25.25
2022-10-17T10:21:25.412Z,25.46
2022-10-17T10:24:31.036Z,25.53
2022-10-17T10:27:33.899Z,25.47
2022-10-17T10:30:39.788Z,26.09
2022-10-17T10:33:47.014Z,26.31
2022-10-17T10:37:17.137Z,26.46
2022-10-17T10:40:32.127Z,26.55
2022-10-17T10:43:34.597Z,26.66
2022-10-17T10:46:36.860Z,26.45
2022-10-17T10:49:39.691Z,26.30
2022-10-17T10:53:18.061Z,26.37
2022-10-17T10:56:49.917Z,26.65
2022-10-17T11:00:02.534Z,26.42
2022-10-17T11:03:24.476Z,26.56
2022-10-17T11:06:31.276Z,26.27
2022-10-17T11:09:42.668Z,26.20
2022-10-17T11:13:03.672Z,26.05
2022-10-17T11:16:25.070Z,25.85
2022-10-17T11:19:56.459Z,25.86
2022-10-17T11:23:09.816Z,25.55
2022-10-17T11:26:26.935Z,25.52
2022-10-17T11:29:32.804Z,25.75
2022-10-17T11:32:41.253Z,25.74
2022-10-17T11:35:47.403Z,25.61
2022-10-17T11:39:20.853Z,25.50
2022-10-17T11:42:33.113Z,25.65
2022-10-17T11:45:42.581Z,25.76
2022-10-17T11:49:24.785Z,25.80
2022-10-17T11:52:55.872Z,26.16
2022-10-17T11:56:01.132Z,26.35
2022-10-17T11:59:28.531Z,26.27
2022-10-17T12:02:44.399Z,26.44
2022-10-17T12:05:50.670Z,26.34
2022-10-17T12:09:08.714Z,26.13
2022-10-17T12:12:11.343Z,26.17
2022-10-17T12:15:13.519Z,26.38
2022-10-17T12:18:17.456Z,26.33
2022-10-17T12:21:19.765Z,26.41
2022-10-17T12:24:54.894Z,26.63
2022-10-17T12:28:06.163Z,26.40
2022-10-17T12:31:19.041Z,26.65
2022-10-17T12:34:24.226Z,26.48
2022-10-17T12:37:43.444Z,26.47
2022-10-17T12:40:49.086Z,26.48
2022-10-17T12:43:54.429Z,26.41
2022-10-17T12:47:08.570Z,25.95
2022-10-17T12:50:48.976Z,26.13
2022-10-17T12:53:59.114Z,25.19
2022-10-17T12:57:01.719Z,25.78
2022-10-17T13:00:49.832Z,26.53
2022-10-17T13:04:05.838Z,26.01
2022-10-17T13:07:19.100Z,26.03
2022-10-17T13:10:23.588Z,25.80
2022-10-17T13:13:33.731Z,25.55
2022-10-17T13:16:43.645Z,24.99
2022-10-17T13:19:46.979Z,24.72
2022-10-17T13:22:49.648Z,24.18
2022-10-17T13:26:22.005Z,23.96
2022-10-17T13:29:25.901Z,23.85
2022-10-17T13:32:36.982Z,23.54
2022-10-17T13:36:00.357Z,23.57
2022-10-17T13:39:13.089Z,23.38
2022-10-17T13:42:29.286Z,23.32
2022-10-17T13:45:34.756Z,23.22
2022-10-17T13:48:38.209Z,23.10
2022-10-17T13:51:44.986Z,23.01
2022-10-17T13:54:53.204Z,22.98
2022-10-17T13:57:56.168Z,22.86
2022-10-17T14:00:59.174Z,22.81
2022-10-17T14:04:09.048Z,22.90
2022-10-17T14:07:26.339Z,22.68
2022-10-17T14:10:34.586Z,22.66
2022-10-17T14:13:36.874Z,22.69
2022-10-17T14:16:42.393Z,22.56
2022-10-17T14:19:51.483Z,22.30
2022-10-17T14:23:21.605Z,22.32
2022-10-17T14:26:24.056Z,22.11
2022-10-17T14:29:53.528Z,21.99
2022-10-17T14:32:58.503Z,21.99
2022-10-17T14:36:02.632Z,21.86
2022-10-17T14:39:13.361Z,21.77
2022-10-17T14:42:21.794Z,21.71
2022-10-17T14:45:28.684Z,21.58
2022-10-17T14:48:33.985Z,21.37
2022-10-17T14:51:50.206Z,21.40
2022-10-17T14:55:12.199Z,21.35
2022-10-17T14:58:22.708Z,21.28
2022-10-17T15:01:25.235Z,21.20
2022-10-17T15:04:27.423Z,21.16
2022-10-17T15:07:29.943Z,21.10
2022-10-17T15:10:35.596Z,20.96
2022-10-17T15:13:43.304Z,20.95
2022-10-17T15:16:47.747Z,20.78
2022-10-17T15:19:50.833Z,20.84
2022-10-17T15:22:54.270Z,20.73
2022-10-17T15:25:56.776Z,20.73
2022-10-17T15:28:59.556Z,20.62
2022-10-17T15:32:02.135Z,20.60
2022-10-17T15:35:04.584Z,20.53
2022-10-17T15:38:07.444Z,20.37
2022-10-17T15:41:11.446Z,20.41
2022-10-17T15:44:14.561Z,20.34
2022-10-17T15:47:23.351Z,20.17
2022-10-17T15:50:26.175Z,20.21
2022-10-17T15:53:28.549Z,20.16
2022-10-17T15:56:42.211Z,20.03
2022-10-17T15:59:46.947Z,19.92
2022-10-17T16:02:50.428Z,19.84
2022-10-17T16:05:52.945Z,19.87
2022-10-17T16:08:55.170Z,19.82
2022-10-17T16:11:57.706Z,19.70
2022-10-17T16:14:59.924Z,19.69
2022-10-17T16:18:05.872Z,19.64
2022-10-17T16:21:14.406Z,19.52
2022-10-17T16:24:17.788Z,19.41
2022-10-17T16:27:20.051Z,19.35
2022-10-17T16:30:24.691Z,19.29
2022-10-17T16:33:26.944Z,19.35
2022-10-17T16:36:29.515Z,19.13
2022-10-17T16:39:31.786Z,19.16
2022-10-17T16:42:34.363Z,19.18
2022-10-17T16:45:36.616Z,19.05
2022-10-17T16:51:42.427Z,18.97
2022-10-17T16:54:44.927Z,18.98
2022-10-17T16:57:48.993Z,18.96
2022-10-17T17:00:52.099Z,18.92
2022-10-17T17:03:54.417Z,18.87
2022-10-17T17:06:57.128Z,18.82
2022-10-17T17:09:59.370Z,18.78
2022-10-17T17:13:03.231Z,18.61
2022-10-17T17:16:11.506Z,18.67
2022-10-17T17:19:16.905Z,18.50
2022-10-17T17:22:19.246Z,18.55
2022-10-17T17:25:22.800Z,18.38
2022-10-17T17:28:26.403Z,18.31
2022-10-17T17:31:31.396Z,18.35
2022-10-17T17:34:37.315Z,18.26
2022-10-17T17:37:39.845Z,18.19
2022-10-17T17:40:50.667Z,18.10
2022-10-17T17:43:54.612Z,18.05
2022-10-17T17:46:58.443Z,17.96
2022-10-17T17:50:02.367Z,17.94
2022-10-17T17:53:05.730Z,17.87
2022-10-17T17:56:17.822Z,17.81
2022-10-17T17:59:20.128Z,17.73
2022-10-17T18:02:22.994Z,17.70
2022-10-17T18:05:26.840Z,17.68
2022-10-17T18:08:29.201Z,17.52
2022-10-17T18:11:32.538Z,17.58
2022-10-17T18:14:34.886Z,17.46
2022-10-17T18:17:37.952Z,17.26
2022-10-17T18:20:42.413Z,17.48
2022-10-17T18:23:46.624Z,17.43
2022-10-17T18:26:49.947Z,17.38
2022-10-17T18:29:52.446Z,17.34
2022-10-17T18:32:54.674Z,17.27
2022-10-17T18:35:58.423Z,17.25
2022-10-17T18:39:01.780Z,17.19
2022-10-17T18:42:04.553Z,17.15
2022-10-17T18:45:11.609Z,16.98
2022-10-17T18:48:14.124Z,16.99
2022-10-17T18:51:20.469Z,16.91
2022-10-17T18:54:24.425Z,16.87
2022-10-17T18:57:26.790Z,16.77
2022-10-17T19:00:30.384Z,16.69
2022-10-17T19:03:32.949Z,16.19
2022-10-17T19:06:37.401Z,16.46
2022-10-17T19:09:39.669Z,16.49
2022-10-17T19:12:42.187Z,16.34
2022-10-17T19:15:44.525Z,16.40
2022-10-17T19:18:51.826Z,16.35
2022-10-17T19:21:54.103Z,16.19
2022-10-17T19:24:56.700Z,16.29
2022-10-17T19:27:59.144Z,16.14
2022-10-17T19:31:01.772Z,16.12
2022-10-17T19:34:04.517Z,16.07
2022-10-17T19:37:07.271Z,16.10
2022-10-17T19:40:10.269Z,16.04
2022-10-17T19:43:12.780Z,15.99
2022-10-17T19:46:18.463Z,15.96
2022-10-17T19:49:21.155Z,15.92
2022-10-17T19:52:23.459Z,15.87
2022-10-17T19:55:25.936Z,15.83
2022-10-17T19:58:28.796Z,15.70
2022-10-17T20:01:34.409Z,15.77
2022-10-17T20:04:42.094Z,15.65
2022-10-17T20:07:53.765Z,15.69
2022-10-17T20:10:56.297Z,15.69
2022-10-17T20:14:00.208Z,15.62
2022-10-17T20:17:02.753Z,15.43
2022-10-17T20:20:08.748Z,15.35
2022-10-17T20:23:30.005Z,15.52
2022-10-17T20:26:38.229Z,15.47
2022-10-17T20:29:41.864Z,15.44
2022-10-17T20:32:44.213Z,15.39
2022-10-17T20:35:48.767Z,15.24
2022-10-17T20:38:55.794Z,15.30
2022-10-17T20:41:58.359Z,15.24
2022-10-17T20:45:00.627Z,15.23
2022-10-17T20:48:03.966Z,15.17
2022-10-17T20:51:10.503Z,15.06
2022-10-17T20:54:13.138Z,15.15
2022-10-17T20:57:15.356Z,15.09
2022-10-17T21:00:17.975Z,14.98
2022-10-17T21:03:20.415Z,15.03
2022-10-17T21:06:23.861Z,15.06
2022-10-17T21:09:26.279Z,15.04
2022-10-17T21:12:36.770Z,15.02
2022-10-17T21:15:48.342Z,14.89
2022-10-17T21:18:53.328Z,14.88
2022-10-17T21:21:55.560Z,14.93
2022-10-17T21:24:58.089Z,14.83
2022-10-17T21:28:00.284Z,14.77
2022-10-17T21:31:12.160Z,14.72
2022-10-17T21:34:17.726Z,14.81
2022-10-17T21:37:20.497Z,14.63
2022-10-17T21:40:22.994Z,14.70
2022-10-17T21:43:25.517Z,14.70
2022-10-17T21:46:28.557Z,14.64
2022-10-17T21:49:31.161Z,14.53
2022-10-17T21:52:33.604Z,14.57
2022-10-17T21:55:37.595Z,14.58
2022-10-17T21:58:40.798Z,14.55
2022-10-17T22:01:45.481Z,14.52
2022-10-17T22:04:48.166Z,14.39
2022-10-17T22:07:50.387Z,14.35
2022-10-17T22:10:52.894Z,14.35
2022-10-17T22:14:01.238Z,14.44
2022-10-17T22:17:03.804Z,14.41
2022-10-17T22:20:06.639Z,14.37
2022-10-17T22:23:09.104Z,14.34
2022-10-17T22:26:13.433Z,14.34
2022-10-17T22:29:16.478Z,14.20
2022-10-17T22:32:21.668Z,14.29
2022-10-17T22:35:25.204Z,14.10
2022-10-17T22:38:28.102Z,14.23
2022-10-17T22:41:30.647Z,14.19
2022-10-17T22:44:33.076Z,14.06
2022-10-17T22:47:35.592Z,14.12
2022-10-17T22:50:41.709Z,14.08
2022-10-17T22:53:44.410Z,14.05
2022-10-17T22:56:46.660Z,14.03
2022-10-17T22:59:49.138Z,14.00
2022-10-17T23:02:54.884Z,14.00
2022-10-17T23:05:57.788Z,13.85
2022-10-17T23:09:00.021Z,13.95
2022-10-17T23:12:02.574Z,13.94
2022-10-17T23:15:05.167Z,13.81
2022-10-17T23:18:09.713Z,13.91
2022-10-17T23:21:12.001Z,13.91
2022-10-17T23:24:15.567Z,13.76
2022-10-17T23:27:17.827Z,13.76
2022-10-17T23:30:20.340Z,13.78
2022-10-17T23:33:22.546Z,13.73
2022-10-17T23:36:25.159Z,13.82
2022-10-17T23:39:27.592Z,13.79
2022-10-17T23:42:30.269Z,13.78
2022-10-17T23:45:36.146Z,13.62
2022-10-17T23:48:40.476Z,13.69
2022-10-17T23:51:42.695Z,13.56
2022-10-17T23:54:45.156Z,13.64
2022-10-17T23:57:47.392Z,13.48
